Time;durP1;ratioP1;P1;durP2;ratioP2;P2;SDS_P1;SDS_P2;PMS_P1;PMS_P2;Temp;Humidity;BMP_temperature;BMP_pressure;BME280_temperature;BME280_humidity;BME280_pressure;Samples;Min_cycle;Max_cycle;Signal;HPM_P1;HPM_P2
2022/04/24 00:00:27;;;;;;;0.38;0.32;;;11.40;99.90;;;;;;5037383;28;20033;-70
2022/04/24 00:02:53;;;;;;;0.45;0.35;;;11.40;99.90;;;;;;5042181;28;20163;-71
2022/04/24 00:05:19;;;;;;;0.60;0.30;;;11.40;99.90;;;;;;5019065;28;20494;-70
2022/04/24 00:07:45;;;;;;;1.65;0.30;;;11.40;99.90;;;;;;5040011;28;20140;-70
2022/04/24 00:10:13;;;;;;;0.85;0.35;;;11.40;99.90;;;;;;5037435;28;20103;-71
2022/04/24 00:12:39;;;;;;;0.70;0.30;;;11.40;99.90;;;;;;5035503;28;20465;-71
2022/04/24 00:15:07;;;;;;;0.73;0.32;;;11.30;99.90;;;;;;5032454;28;20040;-71
2022/04/24 00:17:33;;;;;;;1.33;0.28;;;11.30;99.90;;;;;;5021120;28;20043;-70
2022/04/24 00:19:58;;;;;;;0.30;0.30;;;11.30;99.90;;;;;;5024974;28;20037;-70
2022/04/24 00:22:25;;;;;;;0.90;0.30;;;11.30;99.90;;;;;;5024248;28;20033;-70
2022/04/24 00:24:51;;;;;;;0.30;0.30;;;11.30;99.90;;;;;;5019376;28;20029;-70
2022/04/24 00:27:17;;;;;;;2.28;0.30;;;11.30;99.90;;;;;;5038086;28;20075;-72
2022/04/24 00:29:43;;;;;;;2.55;0.43;;;11.30;99.90;;;;;;5027575;28;20413;-70
2022/04/24 00:32:09;;;;;;;1.35;0.30;;;11.30;99.90;;;;;;5036398;28;20040;-71
2022/04/24 00:34:35;;;;;;;0.22;0.22;;;11.20;99.90;;;;;;5037573;28;20125;-70
2022/04/24 00:37:01;;;;;;;1.23;0.28;;;11.30;99.90;;;;;;5039146;28;20123;-71
2022/04/24 00:39:29;;;;;;;1.48;0.50;;;11.30;99.90;;;;;;5025791;28;20484;-72
2022/04/24 00:41:55;;;;;;;1.67;0.43;;;11.30;99.90;;;;;;5016755;28;20530;-71
2022/04/24 00:44:22;;;;;;;0.57;0.40;;;11.40;99.90;;;;;;5019916;28;20049;-70
2022/04/24 00:46:59;;;;;;;1.48;0.30;;;11.40;99.90;;;;;;5017039;28;20040;-70
2022/04/24 00:49:25;;;;;;;1.90;0.40;;;11.40;99.90;;;;;;5019842;28;20033;-70
2022/04/24 00:51:52;;;;;;;0.60;0.30;;;11.40;99.90;;;;;;5019287;28;20461;-71
2022/04/24 00:54:18;;;;;;;0.28;0.20;;;11.40;99.90;;;;;;5030177;28;20068;-72
2022/04/24 00:56:44;;;;;;;1.77;0.35;;;11.50;99.90;;;;;;5018524;28;20404;-70
2022/04/24 00:59:14;;;;;;;0.50;0.30;;;11.60;99.90;;;;;;5035019;28;20049;-70
2022/04/24 01:01:43;;;;;;;0.43;0.35;;;11.60;99.90;;;;;;5039131;28;20130;-71
2022/04/24 01:04:12;;;;;;;0.35;0.20;;;11.50;99.90;;;;;;5034058;28;20079;-71
2022/04/24 01:06:43;;;;;;;0.40;0.30;;;11.40;99.90;;;;;;5041576;28;20067;-71
2022/04/24 01:09:14;;;;;;;3.25;0.52;;;11.60;99.90;;;;;;5025164;28;20656;-71
2022/04/24 01:11:41;;;;;;;0.98;0.30;;;11.50;99.90;;;;;;5025214;28;20377;-71
2022/04/24 01:14:09;;;;;;;0.47;0.20;;;11.50;99.90;;;;;;5035465;28;20036;-71
2022/04/24 01:16:35;;;;;;;0.30;0.30;;;11.50;99.90;;;;;;5036534;28;20036;-71
2022/04/24 01:19:02;;;;;;;0.30;0.22;;;11.50;99.90;;;;;;5025725;28;20041;-71
2022/04/24 01:21:29;;;;;;;1.60;0.47;;;11.50;99.90;;;;;;5020536;28;20116;-71
2022/04/24 01:23:55;;;;;;;0.50;0.28;;;11.50;99.90;;;;;;5041541;28;20048;-71
2022/04/24 01:26:20;;;;;;;1.52;0.30;;;11.60;99.90;;;;;;5044064;28;20985;-71
2022/04/24 01:28:46;;;;;;;0.63;0.40;;;11.70;99.90;;;;;;5044587;28;20472;-71
2022/04/24 01:31:12;;;;;;;0.40;0.25;;;11.70;99.90;;;;;;5038932;28;20750;-70
2022/04/24 01:33:39;;;;;;;0.47;0.35;;;11.80;99.90;;;;;;5044408;28;20108;-70
2022/04/24 01:36:06;;;;;;;1.35;0.40;;;11.70;99.90;;;;;;5039465;28;20053;-70
2022/04/24 01:38:33;;;;;;;1.10;0.30;;;11.70;99.90;;;;;;5042867;28;20045;-70
2022/04/24 01:40:59;;;;;;;0.82;0.40;;;11.80;99.90;;;;;;5040888;28;20041;-70
2022/04/24 01:43:25;;;;;;;3.88;0.85;;;11.80;99.90;;;;;;5028037;28;20045;-70
2022/04/24 01:45:51;;;;;;;0.38;0.30;;;11.80;99.90;;;;;;5040751;28;20609;-71
2022/04/24 01:48:17;;;;;;;0.65;0.40;;;11.80;99.90;;;;;;5022502;28;20049;-70
2022/04/24 01:50:43;;;;;;;0.60;0.30;;;11.80;99.90;;;;;;5023209;28;20519;-71
2022/04/24 01:53:09;;;;;;;3.20;0.55;;;11.80;99.90;;;;;;5023094;28;20102;-71
2022/04/24 01:55:35;;;;;;;0.85;0.40;;;11.90;99.90;;;;;;5025558;28;20037;-70
2022/04/24 01:58:01;;;;;;;0.45;0.30;;;11.90;99.90;;;;;;5059630;28;20087;-70
2022/04/24 02:00:30;;;;;;;1.95;0.40;;;11.90;99.90;;;;;;5039689;28;20091;-71
2022/04/24 02:02:56;;;;;;;1.20;0.47;;;12.00;99.90;;;;;;5037808;28;20052;-70
2022/04/24 02:05:22;;;;;;;3.83;0.43;;;12.00;99.90;;;;;;5051282;28;20231;-70
2022/04/24 02:07:48;;;;;;;0.85;0.38;;;12.10;99.90;;;;;;5024169;28;20096;-70
2022/04/24 02:10:13;;;;;;;0.70;0.30;;;12.10;99.90;;;;;;5025031;28;20105;-70
2022/04/24 02:12:41;;;;;;;1.25;0.40;;;12.10;99.90;;;;;;5024627;28;20033;-71
2022/04/24 02:15:08;;;;;;;1.10;0.38;;;12.10;99.90;;;;;;5041123;28;20056;-70
2022/04/24 02:17:34;;;;;;;0.65;0.40;;;12.10;99.90;;;;;;5026281;28;20280;-71
2022/04/24 02:20:01;;;;;;;0.20;0.20;;;12.00;99.90;;;;;;5057556;28;20037;-70
2022/04/24 02:22:34;;;;;;;3.13;0.30;;;12.10;99.90;;;;;;5028258;28;20033;-70
2022/04/24 02:25:00;;;;;;;;;;;12.20;99.90;;;;;;5031335;28;20033;-70
2022/04/24 02:27:27;;;;;;;0.93;0.30;;;12.20;99.90;;;;;;5037012;28;19996;-71
2022/04/24 02:29:54;;;;;;;1.02;0.40;;;12.10;99.90;;;;;;5042385;28;20037;-71
2022/04/24 02:32:21;;;;;;;0.50;0.30;;;12.20;99.90;;;;;;5027467;28;20083;-71
2022/04/24 02:34:48;;;;;;;0.73;0.20;;;12.20;99.90;;;;;;5028127;28;20045;-71
2022/04/24 02:37:14;;;;;;;0.13;0.13;;;12.20;99.90;;;;;;5037975;28;20049;-70
2022/04/24 02:39:40;;;;;;;0.95;0.30;;;12.30;99.90;;;;;;5037424;28;20396;-72
2022/04/24 02:42:06;;;;;;;0.63;0.20;;;12.20;99.90;;;;;;5041156;28;20041;-71
2022/04/24 02:44:33;;;;;;;0.65;0.32;;;12.20;99.90;;;;;;5039545;28;20144;-70
2022/04/24 02:46:58;;;;;;;1.30;0.30;;;12.30;99.90;;;;;;5022075;28;20057;-70
2022/04/24 02:49:24;;;;;;;0.22;0.22;;;12.20;99.90;;;;;;5039226;28;20500;-70
2022/04/24 02:51:50;;;;;;;0.40;0.25;;;12.30;99.90;;;;;;5040836;28;20052;-71
2022/04/24 02:54:16;;;;;;;0.32;0.32;;;12.30;99.90;;;;;;5019969;28;20557;-71
2022/04/24 02:56:42;;;;;;;1.45;0.28;;;12.20;99.90;;;;;;5041672;28;20075;-70
2022/04/24 02:59:08;;;;;;;0.40;0.40;;;12.20;99.90;;;;;;5020793;28;20056;-71
2022/04/24 03:01:35;;;;;;;2.17;0.60;;;12.20;99.90;;;;;;5040910;28;20099;-70
2022/04/24 03:04:01;;;;;;;2.38;0.40;;;12.10;99.90;;;;;;5024502;28;20613;-71
2022/04/24 03:06:27;;;;;;;1.33;0.50;;;12.00;99.90;;;;;;5035511;28;20039;-71
2022/04/24 03:08:53;;;;;;;0.45;0.30;;;12.10;99.90;;;;;;5039665;28;20069;-71
2022/04/24 03:11:18;;;;;;;1.20;0.40;;;12.10;99.90;;;;;;5040795;28;20042;-71
2022/04/24 03:13:46;;;;;;;1.50;0.70;;;12.10;99.90;;;;;;5018483;28;20041;-71
2022/04/24 03:16:12;;;;;;;1.33;0.50;;;12.10;99.90;;;;;;5035558;28;20121;-71
2022/04/24 03:18:38;;;;;;;0.30;0.30;;;12.20;99.90;;;;;;5042510;28;20107;-71
2022/04/24 03:21:03;;;;;;;2.28;0.45;;;12.10;99.90;;;;;;5019705;28;20038;-71
2022/04/24 03:23:29;;;;;;;1.13;0.40;;;12.10;99.90;;;;;;5043033;28;20688;-71
2022/04/24 03:25:55;;;;;;;0.90;0.57;;;12.10;99.90;;;;;;5036063;28;20041;-70
2022/04/24 03:28:22;;;;;;;1.02;0.57;;;12.10;99.90;;;;;;5040359;28;20041;-70
2022/04/24 03:30:48;;;;;;;1.27;0.50;;;12.10;99.90;;;;;;5038485;28;20124;-71
2022/04/24 03:33:14;;;;;;;2.72;0.50;;;12.10;99.90;;;;;;5040250;28;20033;-71
2022/04/24 03:35:40;;;;;;;0.43;0.35;;;12.10;99.90;;;;;;5042952;28;20037;-71
2022/04/24 03:38:06;;;;;;;1.50;0.43;;;12.10;99.90;;;;;;5023128;28;20201;-70
2022/04/24 03:40:33;;;;;;;1.08;0.47;;;12.10;99.90;;;;;;5039253;28;20471;-72
2022/04/24 03:42:59;;;;;;;1.05;0.40;;;12.10;99.90;;;;;;5028126;28;20041;-70
2022/04/24 03:45:25;;;;;;;0.88;0.60;;;12.10;99.90;;;;;;5042780;28;20135;-71
2022/04/24 03:47:54;;;;;;;1.65;0.30;;;12.00;99.90;;;;;;5037485;28;20203;-70
2022/04/24 03:50:20;;;;;;;1.17;0.60;;;12.00;99.90;;;;;;5035508;28;20357;-71
2022/04/24 03:52:47;;;;;;;0.85;0.55;;;12.00;99.90;;;;;;5024158;28;20041;-71
2022/04/24 03:55:14;;;;;;;0.98;0.68;;;12.00;99.90;;;;;;5027955;28;20035;-72
2022/04/24 03:57:40;;;;;;;0.82;0.55;;;12.00;99.90;;;;;;5041844;28;20092;-71
2022/04/24 04:00:08;;;;;;;2.92;0.60;;;11.90;99.90;;;;;;5039029;28;20056;-71
2022/04/24 04:02:45;;;;;;;0.90;0.38;;;11.90;99.90;;;;;;5027994;28;20550;-70
2022/04/24 04:05:12;;;;;;;2.03;0.52;;;11.90;99.90;;;;;;5037114;28;20037;-71
2022/04/24 04:07:37;;;;;;;0.50;0.40;;;11.90;99.90;;;;;;5041024;28;20033;-71
2022/04/24 04:10:04;;;;;;;0.63;0.43;;;11.90;99.90;;;;;;5026095;28;20183;-71
2022/04/24 04:12:30;;;;;;;1.70;0.38;;;11.90;99.90;;;;;;5017603;28;20049;-71
2022/04/24 04:14:56;;;;;;;0.52;0.38;;;11.90;99.90;;;;;;5035896;28;20102;-70
2022/04/24 04:17:23;;;;;;;0.45;0.20;;;11.90;99.90;;;;;;5037843;28;22605;-70
2022/04/24 04:19:49;;;;;;;0.52;0.40;;;12.00;99.90;;;;;;5041871;28;20045;-71
2022/04/24 04:22:15;;;;;;;0.70;0.40;;;11.90;99.90;;;;;;5041573;28;20500;-71
2022/04/24 04:24:44;;;;;;;1.40;0.50;;;11.90;99.90;;;;;;5039624;28;20068;-71
2022/04/24 04:27:10;;;;;;;0.40;0.40;;;11.90;99.90;;;;;;5038088;28;20041;-69
2022/04/24 04:29:36;;;;;;;0.93;0.38;;;11.80;99.90;;;;;;5041190;28;20450;-70
2022/04/24 04:32:03;;;;;;;1.10;0.40;;;11.90;99.90;;;;;;5019200;28;20095;-70
2022/04/24 04:34:29;;;;;;;1.00;0.60;;;11.90;99.90;;;;;;5038460;28;20033;-71
2022/04/24 04:36:56;;;;;;;2.28;0.75;;;11.90;99.90;;;;;;5024845;28;20093;-71
2022/04/24 04:39:22;;;;;;;0.68;0.47;;;11.90;99.90;;;;;;5040182;28;20500;-70
2022/04/24 04:41:48;;;;;;;3.00;0.60;;;11.80;99.90;;;;;;5038340;28;20080;-70
2022/04/24 04:44:14;;;;;;;1.95;0.60;;;11.80;99.90;;;;;;5037905;28;20128;-70
2022/04/24 04:46:40;;;;;;;3.63;0.60;;;11.80;99.90;;;;;;5039064;28;20466;-70
2022/04/24 04:49:06;;;;;;;2.25;0.50;;;11.80;99.90;;;;;;5036376;28;20404;-71
2022/04/24 04:51:32;;;;;;;1.50;0.50;;;11.90;99.90;;;;;;5020607;28;20048;-70
2022/04/24 04:53:58;;;;;;;1.20;0.50;;;11.90;99.90;;;;;;5037080;28;20037;-71
2022/04/24 04:56:25;;;;;;;1.92;0.40;;;11.80;99.90;;;;;;5018340;28;20036;-71
2022/04/24 04:58:51;;;;;;;1.38;0.50;;;11.80;99.90;;;;;;5020533;28;20044;-71
2022/04/24 05:01:17;;;;;;;0.90;0.32;;;11.80;99.90;;;;;;5021759;28;20047;-70
2022/04/24 05:03:43;;;;;;;3.30;0.65;;;11.80;99.90;;;;;;5027499;28;20465;-71
2022/04/24 05:06:09;;;;;;;0.43;0.40;;;11.80;99.90;;;;;;5026701;28;20386;-70
2022/04/24 05:08:35;;;;;;;1.48;0.40;;;11.80;99.90;;;;;;5023710;28;20061;-71
2022/04/24 05:11:02;;;;;;;2.78;0.35;;;11.80;99.90;;;;;;5035908;28;20079;-70
2022/04/24 05:13:28;;;;;;;0.45;0.30;;;11.80;99.90;;;;;;5025202;28;20057;-70
2022/04/24 05:15:54;;;;;;;0.68;0.40;;;11.70;99.90;;;;;;5037936;28;20042;-71
2022/04/24 05:18:20;;;;;;;1.27;0.40;;;11.60;99.90;;;;;;5019785;28;20051;-70
2022/04/24 05:20:46;;;;;;;1.60;0.43;;;11.70;99.90;;;;;;5039524;28;20044;-71
2022/04/24 05:23:12;;;;;;;0.50;0.40;;;11.70;99.90;;;;;;5035930;28;20049;-71
2022/04/24 05:25:38;;;;;;;0.50;0.35;;;11.70;99.90;;;;;;5024261;28;20029;-71
2022/04/24 05:28:05;;;;;;;0.30;0.30;;;11.70;99.90;;;;;;5047003;28;20041;-71
2022/04/24 05:30:33;;;;;;;0.88;0.47;;;11.70;99.90;;;;;;5021112;28;20116;-70
2022/04/24 05:32:59;;;;;;;2.40;0.40;;;11.80;99.90;;;;;;5024524;28;20060;-71
2022/04/24 05:35:25;;;;;;;0.32;0.30;;;11.80;99.90;;;;;;5023776;28;20045;-70
2022/04/24 05:37:51;;;;;;;1.55;0.30;;;11.70;99.90;;;;;;5020391;28;20476;-71
2022/04/24 05:40:18;;;;;;;1.63;0.40;;;11.70;99.90;;;;;;5042392;28;20049;-71
2022/04/24 05:42:54;;;;;;;5.50;0.43;;;11.70;99.90;;;;;;5035910;28;20131;-70
2022/04/24 05:45:24;;;;;;;2.22;0.70;;;11.60;99.90;;;;;;5038054;28;20055;-70
2022/04/24 05:47:51;;;;;;;1.08;0.40;;;11.60;99.90;;;;;;5022524;28;20038;-71
2022/04/24 05:50:17;;;;;;;1.85;0.50;;;11.70;99.90;;;;;;5039507;28;20125;-71
2022/04/24 05:52:44;;;;;;;0.43;0.40;;;11.70;99.90;;;;;;5017934;28;20044;-70
2022/04/24 05:55:11;;;;;;;0.68;0.47;;;11.70;99.90;;;;;;5038211;28;20338;-71
2022/04/24 05:57:37;;;;;;;1.10;0.30;;;11.70;99.90;;;;;;5034509;28;20045;-71
2022/04/24 06:00:08;;;;;;;0.82;0.40;;;11.70;99.90;;;;;;5034171;28;20040;-71
2022/04/24 06:02:34;;;;;;;1.27;0.50;;;11.70;99.90;;;;;;5010538;28;20045;-71
2022/04/24 06:05:00;;;;;;;0.30;0.30;;;11.80;99.90;;;;;;5021750;28;20040;-73
2022/04/24 06:07:26;;;;;;;1.75;0.50;;;11.90;99.90;;;;;;5027090;28;20095;-71
2022/04/24 06:09:52;;;;;;;1.08;0.40;;;12.00;99.90;;;;;;5056562;28;20041;-71
2022/04/24 06:12:18;;;;;;;1.00;0.30;;;12.10;99.90;;;;;;5039001;28;20044;-70
2022/04/24 06:14:44;;;;;;;1.38;0.35;;;12.10;99.90;;;;;;5035732;28;20033;-71
2022/04/24 06:17:10;;;;;;;0.70;0.45;;;12.20;99.90;;;;;;5035376;28;20036;-70
2022/04/24 06:19:36;;;;;;;0.50;0.50;;;12.20;99.90;;;;;;5029584;28;20044;-71
2022/04/24 06:22:02;;;;;;;2.05;0.43;;;12.20;99.90;;;;;;5029931;28;20033;-71
2022/04/24 06:24:28;;;;;;;1.20;0.52;;;12.30;99.90;;;;;;5025048;28;20135;-71
2022/04/24 06:26:54;;;;;;;0.60;0.50;;;12.30;99.90;;;;;;5041172;28;20041;-70
2022/04/24 06:29:19;;;;;;;0.75;0.50;;;12.30;99.90;;;;;;5039489;28;20492;-70
2022/04/24 06:31:45;;;;;;;1.85;0.65;;;12.40;99.90;;;;;;5038381;28;20041;-71
2022/04/24 06:34:11;;;;;;;0.90;0.60;;;12.50;99.90;;;;;;5002746;28;20045;-71
2022/04/24 06:36:38;;;;;;;0.70;0.52;;;12.70;99.90;;;;;;5039430;28;20492;-71
2022/04/24 06:39:05;;;;;;;0.88;0.68;;;12.80;99.90;;;;;;5035158;28;20051;-71
2022/04/24 06:41:31;;;;;;;1.27;0.60;;;12.80;99.90;;;;;;5026955;28;20045;-71
2022/04/24 06:43:57;;;;;;;0.88;0.50;;;12.80;99.90;;;;;;5042801;28;20037;-70
2022/04/24 06:46:26;;;;;;;0.47;0.40;;;12.80;99.90;;;;;;5037601;28;20526;-71
2022/04/24 06:48:52;;;;;;;0.50;0.50;;;12.70;99.90;;;;;;5041548;28;20047;-71
2022/04/24 06:51:19;;;;;;;1.65;0.43;;;12.70;99.90;;;;;;5028477;28;20123;-70
2022/04/24 06:53:45;;;;;;;2.05;0.70;;;12.80;99.90;;;;;;5031758;28;20121;-71
2022/04/24 06:56:10;;;;;;;0.55;0.50;;;12.90;99.90;;;;;;5037108;28;20153;-71
2022/04/24 06:58:36;;;;;;;0.70;0.50;;;12.90;99.90;;;;;;5030162;28;20044;-71
2022/04/24 07:01:02;;;;;;;0.98;0.55;;;12.90;99.90;;;;;;5019105;28;20095;-72
2022/04/24 07:03:29;;;;;;;0.93;0.47;;;13.00;99.90;;;;;;5039371;28;20063;-72
2022/04/24 07:05:57;;;;;;;1.95;0.45;;;13.10;99.90;;;;;;5029413;28;20037;-71
2022/04/24 07:08:24;;;;;;;0.63;0.55;;;13.10;99.90;;;;;;5023701;28;20044;-72
2022/04/24 07:10:55;;;;;;;0.85;0.50;;;13.10;99.90;;;;;;5028376;28;20515;-72
2022/04/24 07:13:22;;;;;;;4.32;0.60;;;13.10;99.90;;;;;;5037511;28;20041;-72
2022/04/24 07:15:48;;;;;;;1.17;0.43;;;13.20;99.90;;;;;;5052682;28;20025;-72
2022/04/24 07:18:14;;;;;;;0.55;0.43;;;13.20;99.90;;;;;;5039875;28;20036;-72
2022/04/24 07:20:40;;;;;;;0.55;0.50;;;13.20;99.90;;;;;;5042077;28;20485;-72
2022/04/24 07:23:05;;;;;;;0.50;0.30;;;13.30;99.90;;;;;;5030961;28;20044;-72
2022/04/24 07:25:40;;;;;;;1.48;0.50;;;13.20;99.90;;;;;;5042467;28;20025;-71
2022/04/24 07:28:08;;;;;;;1.05;0.50;;;13.30;99.90;;;;;;5027205;28;20037;-71
2022/04/24 07:30:34;;;;;;;2.60;0.50;;;13.40;99.90;;;;;;5018862;28;20121;-71
2022/04/24 07:33:00;;;;;;;0.63;0.60;;;13.40;99.90;;;;;;5025776;28;20116;-71
2022/04/24 07:35:28;;;;;;;2.65;0.60;;;13.40;99.90;;;;;;5026955;28;20125;-71
2022/04/24 07:37:55;;;;;;;0.77;0.45;;;13.50;99.90;;;;;;5020409;28;20481;-72
2022/04/24 07:40:25;;;;;;;0.77;0.40;;;13.70;99.90;;;;;;5022963;28;20038;-71
2022/04/24 07:42:56;;;;;;;0.73;0.50;;;13.80;99.90;;;;;;5017571;28;20095;-71
2022/04/24 07:45:22;;;;;;;1.23;0.60;;;13.80;99.90;;;;;;5006309;28;20065;-72
2022/04/24 07:47:51;;;;;;;2.30;0.65;;;14.10;99.90;;;;;;5020709;28;20065;-71
2022/04/24 07:50:21;;;;;;;1.00;0.70;;;14.20;99.90;;;;;;5012995;28;20034;-71
2022/04/24 07:52:48;;;;;;;0.90;0.60;;;14.30;99.90;;;;;;5006151;28;20034;-72
2022/04/24 07:55:21;;;;;;;0.60;0.50;;;14.20;99.90;;;;;;5014355;28;20477;-71
2022/04/24 07:57:48;;;;;;;4.53;0.70;;;14.20;99.90;;;;;;5015735;28;20034;-71
2022/04/24 08:00:18;;;;;;;0.52;0.43;;;14.40;99.90;;;;;;5005970;28;20081;-71
2022/04/24 08:02:57;;;;;;;1.70;0.55;;;14.40;99.90;;;;;;5021544;28;20040;-71
2022/04/24 08:05:45;;;;;;;0.73;0.45;;;14.40;99.90;;;;;;5017943;28;20030;-72
2022/04/24 08:08:19;;;;;;;0.93;0.50;;;14.40;99.90;;;;;;5021545;28;20041;-71
2022/04/24 08:10:50;;;;;;;1.05;0.70;;;14.60;99.90;;;;;;5018091;28;20061;-70
2022/04/24 08:13:17;;;;;;;1.05;0.50;;;14.80;99.90;;;;;;5017320;28;20038;-70
2022/04/24 08:15:44;;;;;;;0.43;0.40;;;14.90;99.90;;;;;;5020417;28;20432;-71
2022/04/24 08:18:10;;;;;;;1.65;0.45;;;14.90;99.90;;;;;;5023629;28;20100;-70
2022/04/24 08:20:38;;;;;;;0.85;0.50;;;15.10;99.90;;;;;;5022806;28;20037;-70
2022/04/24 08:23:07;;;;;;;0.73;0.65;;;15.20;99.90;;;;;;5000850;28;20042;-74
2022/04/24 08:25:37;;;;;;;1.67;0.80;;;15.30;99.90;;;;;;5018697;28;20029;-75
2022/04/24 08:28:08;;;;;;;1.85;0.70;;;15.50;99.90;;;;;;5014629;28;20042;-75
2022/04/24 08:30:36;;;;;;;1.98;0.60;;;15.20;99.90;;;;;;5015517;28;20034;-75
2022/04/24 08:33:04;;;;;;;0.98;0.40;;;15.20;99.90;;;;;;5020324;28;20045;-74
2022/04/24 08:35:30;;;;;;;0.73;0.50;;;15.30;99.90;;;;;;5028451;28;20041;-75
2022/04/24 08:37:57;;;;;;;0.63;0.50;;;16.10;99.90;;;;;;5018580;28;20076;-75
2022/04/24 08:40:24;;;;;;;1.25;0.60;;;16.50;99.90;;;;;;5005765;28;20049;-74
2022/04/24 08:42:56;;;;;;;0.85;0.50;;;16.70;99.90;;;;;;5019109;28;20038;-75
2022/04/24 08:45:29;;;;;;;;;;;17.10;99.90;;;;;;5025798;28;20844;-75
2022/04/24 08:47:56;;;;;;;0.63;0.50;;;17.80;99.90;;;;;;5020737;28;20407;-75
2022/04/24 08:50:27;;;;;;;1.00;0.60;;;18.50;99.90;;;;;;5020024;28;20034;-74
2022/04/24 08:52:57;;;;;;;0.93;0.60;;;19.20;99.90;;;;;;5021925;28;20026;-79
2022/04/24 08:55:26;;;;;;;1.02;0.70;;;19.70;99.30;;;;;;5024072;28;20110;-75
2022/04/24 08:57:53;;;;;;;3.28;0.52;;;19.20;99.50;;;;;;5022631;28;20097;-76
2022/04/24 09:00:19;;;;;;;1.33;0.60;;;18.40;99.90;;;;;;5020334;28;20048;-74
2022/04/24 09:02:49;;;;;;;1.75;0.60;;;18.90;99.90;;;;;;5021945;28;20076;-75
2022/04/24 09:05:15;;;;;;;1.17;0.50;;;19.60;99.20;;;;;;5023326;28;20087;-75
2022/04/24 09:07:43;;;;;;;1.67;0.63;;;20.50;98.40;;;;;;5002159;28;20045;-75
2022/04/24 09:10:13;;;;;;;0.73;0.57;;;20.90;97.20;;;;;;5018670;28;20060;-75
2022/04/24 09:12:42;;;;;;;0.60;0.60;;;21.60;97.00;;;;;;5020121;28;20131;-74
2022/04/24 09:15:09;;;;;;;0.65;0.63;;;22.20;96.00;;;;;;5017478;28;20030;-75
2022/04/24 09:17:36;;;;;;;0.63;0.45;;;22.60;95.60;;;;;;5007504;28;20034;-75
2022/04/24 09:20:17;;;;;;;1.65;0.63;;;23.20;95.00;;;;;;5020544;28;20077;-75
2022/04/24 09:22:45;;;;;;;1.30;0.75;;;22.40;94.80;;;;;;5035536;28;20190;-74
2022/04/24 09:25:12;;;;;;;1.02;0.50;;;22.60;94.90;;;;;;5024065;28;20048;-74
2022/04/24 09:27:39;;;;;;;1.30;0.60;;;22.60;95.40;;;;;;5041078;28;20037;-75
2022/04/24 09:30:15;;;;;;;2.10;0.60;;;22.70;94.90;;;;;;5043162;28;20124;-75
2022/04/24 09:32:53;;;;;;;0.60;0.60;;;22.10;95.50;;;;;;5028529;28;20037;-74
2022/04/24 09:35:32;;;;;;;0.38;0.38;;;22.30;95.30;;;;;;5022676;28;20110;-75
2022/04/24 09:38:25;;;;;;;0.93;0.47;;;21.70;95.00;;;;;;5023600;28;20041;-75
2022/04/24 09:40:52;;;;;;;1.67;0.60;;;22.00;94.70;;;;;;5017269;28;20473;-74
2022/04/24 09:43:19;;;;;;;0.50;0.50;;;22.60;94.60;;;;;;5031213;28;20163;-74
2022/04/24 09:45:50;;;;;;;1.25;0.80;;;22.00;94.70;;;;;;5037986;28;20038;-75
2022/04/24 09:48:19;;;;;;;0.93;0.43;;;21.20;95.40;;;;;;5048358;28;20037;-75
2022/04/24 09:50:45;;;;;;;1.45;0.60;;;20.80;95.80;;;;;;5041562;28;20053;-74
2022/04/24 09:53:13;;;;;;;1.23;0.60;;;20.20;96.00;;;;;;5044838;28;20044;-74
2022/04/24 09:55:41;;;;;;;3.20;0.73;;;20.90;96.60;;;;;;5045178;28;20190;-75
2022/04/24 09:58:08;;;;;;;1.17;0.70;;;21.30;95.80;;;;;;5025394;28;20037;-74
2022/04/24 10:00:34;;;;;;;0.98;0.60;;;21.20;95.70;;;;;;5032236;28;20059;-74
2022/04/24 10:03:02;;;;;;;0.63;0.63;;;20.80;96.20;;;;;;5027025;28;20144;-74
2022/04/24 10:05:32;;;;;;;1.67;0.80;;;21.80;95.90;;;;;;5028841;28;20085;-74
2022/04/24 10:08:04;;;;;;;2.22;0.63;;;22.10;95.90;;;;;;5041987;28;20045;-74
2022/04/24 10:10:30;;;;;;;0.80;0.40;;;22.30;95.10;;;;;;5028546;28;20036;-74
2022/04/24 10:13:00;;;;;;;1.10;0.80;;;21.80;95.30;;;;;;5042836;28;20037;-74
2022/04/24 10:15:29;;;;;;;0.50;0.50;;;21.70;95.60;;;;;;5045781;28;20085;-74
2022/04/24 10:18:14;;;;;;;0.63;0.40;;;21.40;95.50;;;;;;5046959;28;20030;-74
2022/04/24 10:20:47;;;;;;;2.53;0.80;;;20.80;96.00;;;;;;5027519;28;20025;-74
2022/04/24 10:23:13;;;;;;;2.65;0.77;;;19.60;96.90;;;;;;5045604;28;20094;-75
2022/04/24 10:25:43;;;;;;;2.47;1.10;;;19.90;97.70;;;;;;5026646;28;20090;-75
2022/04/24 10:28:21;;;;;;;0.70;0.63;;;20.30;97.00;;;;;;5007057;28;20052;-75
2022/04/24 10:30:59;;;;;;;0.47;0.47;;;20.10;96.90;;;;;;5045990;28;20499;-75
2022/04/24 10:33:28;;;;;;;0.50;0.50;;;20.20;97.30;;;;;;5037793;28;20049;-75
2022/04/24 10:36:04;;;;;;;3.05;0.90;;;20.60;97.50;;;;;;5021467;28;20034;-74
2022/04/24 10:38:32;;;;;;;1.38;0.70;;;21.20;96.70;;;;;;5031734;28;20037;-74
2022/04/24 10:41:15;;;;;;;1.88;0.80;;;21.40;95.80;;;;;;5044750;28;20038;-74
2022/04/24 10:43:48;;;;;;;1.33;0.80;;;21.30;95.90;;;;;;5008564;28;20095;-75
2022/04/24 10:46:19;;;;;;;1.58;1.00;;;21.60;95.70;;;;;;5008503;28;20036;-75
2022/04/24 10:48:48;;;;;;;1.37;0.77;;;22.10;95.30;;;;;;5042136;28;20125;-75
2022/04/24 10:51:26;;;;;;;1.52;0.70;;;22.20;95.20;;;;;;5024301;28;20037;-75
2022/04/24 10:54:05;;;;;;;1.55;0.70;;;22.30;95.00;;;;;;5043934;28;20037;-76
2022/04/24 10:56:34;;;;;;;2.08;0.73;;;22.20;94.90;;;;;;5042224;28;20057;-75
2022/04/24 10:59:18;;;;;;;0.95;0.50;;;22.70;94.90;;;;;;5013511;28;20120;-76
2022/04/24 11:01:50;;;;;;;0.90;0.63;;;22.30;94.60;;;;;;5040496;28;20047;-74
2022/04/24 11:04:17;;;;;;;1.15;0.70;;;22.10;95.00;;;;;;5041633;28;20535;-74
2022/04/24 11:07:05;;;;;;;0.77;0.57;;;22.00;95.20;;;;;;5040387;28;20037;-74
2022/04/24 11:09:36;;;;;;;2.70;1.45;;;22.20;94.70;;;;;;5028582;28;20056;-75
2022/04/24 11:12:10;;;;;;;0.85;0.77;;;22.30;94.60;;;;;;5026911;28;20041;-74
2022/04/24 11:14:37;;;;;;;1.55;0.75;;;22.60;94.00;;;;;;5020032;28;20046;-74
2022/04/24 11:17:06;;;;;;;1.25;0.60;;;22.30;94.60;;;;;;5025653;28;20075;-75
2022/04/24 11:19:35;;;;;;;1.00;0.70;;;22.70;94.60;;;;;;5023560;28;20045;-75
2022/04/24 11:22:08;;;;;;;0.82;0.70;;;22.90;94.10;;;;;;5028870;28;20055;-74
2022/04/24 11:24:39;;;;;;;0.95;0.85;;;23.50;93.70;;;;;;5024973;28;20052;-75
2022/04/24 11:27:10;;;;;;;1.95;0.80;;;23.70;93.60;;;;;;5026050;28;20044;-74
2022/04/24 11:29:38;;;;;;;0.80;0.70;;;23.30;93.70;;;;;;5026738;28;20096;-74
2022/04/24 11:32:08;;;;;;;1.73;0.93;;;23.60;93.40;;;;;;5014339;28;20041;-73
2022/04/24 11:34:36;;;;;;;3.05;0.98;;;23.10;93.60;;;;;;5023430;28;20405;-74
2022/04/24 11:37:04;;;;;;;1.70;1.10;;;22.70;93.80;;;;;;5029035;28;20101;-73
2022/04/24 11:39:31;;;;;;;1.73;1.10;;;22.60;93.70;;;;;;5025511;28;20370;-73
2022/04/24 11:41:58;;;;;;;2.10;1.10;;;22.70;93.90;;;;;;5010819;28;20045;-74
2022/04/24 11:50:15;;;;;;;2.33;1.30;;;23.10;93.70;;;;;;5016209;28;20101;-73
2022/04/24 11:52:43;;;;;;;3.28;0.95;;;22.60;93.80;;;;;;5027725;28;20412;-73
2022/04/24 11:58:16;;;;;;;1.45;1.10;;;23.50;93.80;;;;;;5040888;28;20107;-73
2022/04/24 12:00:42;;;;;;;4.80;1.00;;;24.20;93.30;;;;;;5026536;28;20148;-73
2022/04/24 12:03:10;;;;;;;2.35;1.05;;;24.90;92.80;;;;;;5040248;28;20045;-74
2022/04/24 12:05:36;;;;;;;2.72;1.05;;;23.60;93.00;;;;;;5030934;28;20099;-74
2022/04/24 12:08:04;;;;;;;3.55;1.20;;;24.00;93.50;;;;;;5038960;28;20064;-73
2022/04/24 12:10:30;;;;;;;2.50;0.90;;;24.90;92.70;;;;;;5038850;28;20124;-74
2022/04/24 12:12:57;;;;;;;2.10;1.00;;;25.40;92.30;;;;;;5043003;28;20055;-75
2022/04/24 12:15:25;;;;;;;1.77;1.10;;;24.60;92.20;;;;;;5039191;28;20040;-74
2022/04/24 12:17:53;;;;;;;2.28;1.30;;;24.90;92.80;;;;;;5024532;28;20524;-73
2022/04/24 12:20:21;;;;;;;1.50;1.00;;;25.30;92.40;;;;;;5042622;28;20034;-74
2022/04/24 12:22:47;;;;;;;2.05;1.10;;;24.70;92.20;;;;;;5043343;28;20125;-74
2022/04/24 12:25:15;;;;;;;1.23;0.90;;;24.70;92.70;;;;;;5022064;28;20092;-73
2022/04/24 12:27:58;;;;;;;3.05;1.20;;;25.60;92.20;;;;;;5046472;28;20132;-74
2022/04/24 12:30:33;;;;;;;3.92;1.60;;;23.60;92.20;;;;;;5039584;28;20472;-73
2022/04/24 12:33:07;;;;;;;3.22;1.50;;;23.50;93.10;;;;;;5038579;28;20388;-74
2022/04/24 12:35:35;;;;;;;4.82;2.28;;;21.90;94.30;;;;;;5054037;28;20037;-74
2022/04/24 12:38:16;;;;;;;2.92;1.58;;;23.30;94.20;;;;;;5042463;28;20084;-72
2022/04/24 12:40:57;;;;;;;2.90;1.52;;;22.20;94.20;;;;;;5039161;28;20072;-73
2022/04/24 12:43:30;;;;;;;3.20;1.70;;;23.80;93.70;;;;;;5035127;28;20045;-74
2022/04/24 12:45:58;;;;;;;2.75;1.45;;;23.30;93.70;;;;;;5033614;28;20049;-74
2022/04/24 12:48:25;;;;;;;5.18;2.53;;;23.00;93.60;;;;;;5019351;28;20511;-74
2022/04/24 12:50:52;;;;;;;4.05;1.50;;;24.00;93.60;;;;;;5022559;28;20084;-74
2022/04/24 12:53:19;;;;;;;4.10;1.65;;;23.80;93.20;;;;;;5003576;28;20053;-73
2022/04/24 12:55:47;;;;;;;3.45;2.00;;;24.60;92.90;;;;;;4999422;28;20400;-73
2022/04/24 12:58:16;;;;;;;3.97;1.50;;;23.80;93.60;;;;;;5015776;28;20187;-74
2022/04/24 13:00:45;;;;;;;5.22;1.70;;;23.60;93.60;;;;;;5018620;28;20041;-74